Time;durP1;ratioP1;P1;durP2;ratioP2;P2;SDS_P1;SDS_P2;PMS_P1;PMS_P2;Temp;Humidity;BMP_temperature;BMP_pressure;BME280_temperature;BME280_humidity;BME280_pressure;Samples;Min_cycle;Max_cycle;Signal;HPM_P1;HPM_P2
2022/11/18 00:00:31;;;;;;;11.48;9.30;;;8.20;99.90;;;;;;4974825;28;20046;-84
2022/11/18 00:02:56;;;;;;;10.82;8.98;;;8.20;99.90;;;;;;4973880;28;20043;-84
2022/11/18 00:05:22;;;;;;;11.38;9.02;;;8.20;99.90;;;;;;4973093;28;20043;-84
2022/11/18 00:07:47;;;;;;;13.60;8.90;;;8.20;99.90;;;;;;4974334;28;20458;-84
2022/11/18 00:10:13;;;;;;;10.82;9.38;;;8.20;99.90;;;;;;4973765;28;20046;-84
2022/11/18 00:15:23;;;;;;;12.43;10.05;;;8.20;99.90;;;;;;4973369;28;20098;-84
2022/11/18 00:17:48;;;;;;;11.02;9.40;;;8.20;99.90;;;;;;4973265;28;20042;-84
2022/11/18 00:20:14;;;;;;;12.98;10.23;;;8.20;99.90;;;;;;4974134;28;20098;-84
2022/11/18 00:22:40;;;;;;;11.20;9.43;;;8.20;99.90;;;;;;4973338;28;20043;-84
2022/11/18 00:25:06;;;;;;;14.25;10.05;;;8.20;99.90;;;;;;4972992;28;20118;-84
2022/11/18 00:27:31;;;;;;;12.32;10.65;;;8.20;99.90;;;;;;4974371;28;20045;-84
2022/11/18 00:29:57;;;;;;;13.18;10.05;;;8.20;99.90;;;;;;4972741;28;20451;-84
2022/11/18 00:32:23;;;;;;;14.38;12.50;;;8.20;99.90;;;;;;4972733;28;20054;-84
2022/11/18 00:34:48;;;;;;;14.40;11.70;;;8.20;99.90;;;;;;4973047;28;20042;-84
2022/11/18 00:37:14;;;;;;;15.18;11.05;;;8.20;99.90;;;;;;4974692;28;20427;-84
2022/11/18 00:39:40;;;;;;;14.35;12.05;;;8.20;99.90;;;;;;4973051;28;20494;-85
2022/11/18 00:44:49;;;;;;;14.68;11.63;;;8.20;99.90;;;;;;4989238;28;20501;-84
2022/11/18 00:47:15;;;;;;;15.43;11.68;;;8.20;99.90;;;;;;4972823;28;20133;-85
2022/11/18 00:49:41;;;;;;;14.32;12.55;;;8.20;99.90;;;;;;4974075;28;20051;-84
2022/11/18 00:52:06;;;;;;;16.13;11.38;;;8.20;99.90;;;;;;4974445;28;20403;-84
2022/11/18 00:54:32;;;;;;;15.15;12.55;;;8.30;99.90;;;;;;4955398;28;20122;-84
2022/11/18 00:56:58;;;;;;;12.68;11.23;;;8.20;99.90;;;;;;4956801;28;20487;-84
2022/11/18 00:59:23;;;;;;;14.88;13.15;;;8.20;99.90;;;;;;4973753;28;20043;-84
2022/11/18 01:01:49;;;;;;;14.20;12.05;;;8.20;99.90;;;;;;4971833;28;20490;-84
2022/11/18 01:04:14;;;;;;;16.50;12.52;;;8.20;99.90;;;;;;4974540;28;20043;-84
2022/11/18 01:06:40;;;;;;;16.92;12.93;;;8.20;99.90;;;;;;4972863;28;20502;-84
2022/11/18 01:09:06;;;;;;;14.07;12.68;;;8.20;99.90;;;;;;4955167;28;20030;-84
2022/11/18 01:14:16;;;;;;;18.33;14.88;;;8.20;99.90;;;;;;4955902;28;20047;-84
2022/11/18 01:16:41;;;;;;;16.33;14.02;;;8.20;99.90;;;;;;4974063;28;20125;-83
2022/11/18 01:19:07;;;;;;;17.10;13.82;;;8.20;99.90;;;;;;4956654;28;20039;-84
2022/11/18 01:21:32;;;;;;;17.63;13.98;;;8.30;99.90;;;;;;4979098;23;20103;-84
2022/11/18 01:23:58;;;;;;;16.63;13.57;;;8.30;99.90;;;;;;5032304;28;20053;-84
2022/11/18 01:26:24;;;;;;;18.77;14.35;;;8.20;99.90;;;;;;5031792;28;20045;-84
2022/11/18 01:28:49;;;;;;;20.10;15.27;;;8.30;99.90;;;;;;5030437;28;20038;-84
2022/11/18 01:31:17;;;;;;;17.50;14.55;;;8.20;99.90;;;;;;5031767;28;20072;-84
2022/11/18 01:33:44;;;;;;;17.30;14.00;;;8.20;99.90;;;;;;5030945;28;20508;-84
2022/11/18 01:36:21;;;;;;;18.50;14.05;;;8.30;99.90;;;;;;5032345;28;20045;-84
2022/11/18 01:38:48;;;;;;;18.45;15.05;;;8.20;99.90;;;;;;5032146;28;20052;-84
2022/11/18 01:41:14;;;;;;;20.17;13.82;;;8.20;99.90;;;;;;5031190;28;20077;-84
2022/11/18 01:43:47;;;;;;;20.17;14.98;;;8.30;99.90;;;;;;5029403;28;20501;-84
2022/11/18 01:46:13;;;;;;;17.80;14.60;;;8.30;99.90;;;;;;5032728;28;20041;-84
2022/11/18 01:48:38;;;;;;;21.73;16.23;;;8.30;99.90;;;;;;5030870;28;20045;-84
2022/11/18 01:51:09;;;;;;;18.75;16.13;;;8.30;99.90;;;;;;5030910;28;20033;-84
2022/11/18 01:53:39;;;;;;;19.60;15.23;;;8.30;99.90;;;;;;5031823;28;20079;-84
2022/11/18 01:56:11;;;;;;;20.17;16.10;;;8.30;99.90;;;;;;5031774;28;20041;-83
2022/11/18 01:58:51;;;;;;;22.27;16.15;;;8.30;99.90;;;;;;5032119;28;20124;-84
2022/11/18 02:01:17;;;;;;;19.23;15.05;;;8.30;99.90;;;;;;5031307;28;20057;-84
2022/11/18 02:03:45;;;;;;;23.23;16.17;;;8.30;99.90;;;;;;5030090;28;20389;-84
2022/11/18 02:06:12;;;;;;;20.40;15.85;;;8.30;99.90;;;;;;5032531;28;20099;-84
2022/11/18 02:08:39;;;;;;;18.83;15.95;;;8.30;99.90;;;;;;5030478;28;20037;-84
2022/11/18 02:11:08;;;;;;;21.67;17.50;;;8.30;99.90;;;;;;5031671;28;20041;-84
2022/11/18 02:13:33;;;;;;;19.83;16.13;;;8.30;99.90;;;;;;5017295;28;20045;-84
2022/11/18 02:16:02;;;;;;;20.63;15.82;;;8.30;99.90;;;;;;5022194;28;20034;-84
2022/11/18 02:18:52;;;;;;;22.65;15.88;;;8.30;99.90;;;;;;5030511;28;20046;-84
2022/11/18 02:21:27;;;;;;;20.38;16.25;;;8.30;99.90;;;;;;5035452;28;20061;-84
2022/11/18 02:24:09;;;;;;;20.25;16.17;;;8.30;99.90;;;;;;5035965;28;20562;-84
2022/11/18 02:26:37;;;;;;;20.10;15.05;;;8.30;99.90;;;;;;5017028;28;20061;-84
2022/11/18 02:29:14;;;;;;;20.90;15.82;;;8.30;99.90;;;;;;5036201;28;20041;-84
2022/11/18 02:31:46;;;;;;;20.15;15.35;;;8.30;99.90;;;;;;5033437;28;20087;-84
2022/11/18 02:34:15;;;;;;;20.85;15.68;;;8.30;99.90;;;;;;5035898;28;20049;-83
2022/11/18 02:36:59;;;;;;;21.98;15.70;;;8.30;99.90;;;;;;5033133;28;20452;-84
2022/11/18 02:39:36;;;;;;;22.25;15.88;;;8.20;99.90;;;;;;5028318;28;20466;-84
2022/11/18 02:42:06;;;;;;;21.77;15.95;;;8.30;99.90;;;;;;5034087;28;20041;-83
2022/11/18 02:44:34;;;;;;;21.70;15.68;;;8.30;99.90;;;;;;5035971;28;20046;-84
2022/11/18 02:47:05;;;;;;;20.38;15.40;;;8.30;99.90;;;;;;5033295;28;20049;-84
2022/11/18 02:49:55;;;;;;;20.10;15.35;;;8.30;99.90;;;;;;5015201;28;20188;-84
2022/11/18 02:52:22;;;;;;;20.33;15.23;;;8.30;99.90;;;;;;5032051;28;20044;-84
2022/11/18 02:54:50;;;;;;;21.23;16.65;;;8.30;99.90;;;;;;5033410;28;20154;-84
2022/11/18 02:57:19;;;;;;;21.85;14.80;;;8.30;99.90;;;;;;5034728;28;20042;-84
2022/11/18 02:59:45;;;;;;;21.95;16.38;;;8.30;99.90;;;;;;5033239;28;20041;-84
2022/11/18 03:02:18;;;;;;;23.95;15.80;;;8.30;99.90;;;;;;5034168;28;20048;-84
2022/11/18 03:04:50;;;;;;;19.88;14.90;;;8.30;99.90;;;;;;5033858;28;20037;-84
2022/11/18 03:07:24;;;;;;;20.40;15.55;;;8.30;99.90;;;;;;5033079;28;20436;-84
2022/11/18 03:09:51;;;;;;;19.52;15.38;;;8.30;99.90;;;;;;5035478;28;20132;-85
2022/11/18 03:12:46;;;;;;;21.98;16.08;;;8.30;99.90;;;;;;5034030;28;20041;-85
2022/11/18 03:15:22;;;;;;;23.40;16.20;;;8.30;99.90;;;;;;5019549;28;20408;-85
2022/11/18 03:17:59;;;;;;;19.08;15.40;;;8.30;99.90;;;;;;5034778;28;20116;-84
2022/11/18 03:20:48;;;;;;;22.70;15.80;;;8.40;99.90;;;;;;5035173;28;20049;-85
2022/11/18 03:23:18;;;;;;;20.05;15.93;;;8.30;99.90;;;;;;5033156;28;20060;-84
2022/11/18 03:26:01;;;;;;;22.48;16.65;;;8.30;99.90;;;;;;5023804;28;20493;-84
2022/11/18 03:28:35;;;;;;;20.67;16.20;;;8.30;99.90;;;;;;5032997;28;20049;-84
2022/11/18 03:31:12;;;;;;;21.75;15.38;;;8.30;99.90;;;;;;5032615;28;20042;-84
2022/11/18 03:34:02;;;;;;;22.05;15.10;;;8.30;99.90;;;;;;5036649;28;20060;-84
2022/11/18 03:36:35;;;;;;;23.05;16.55;;;8.30;99.90;;;;;;5049663;28;20400;-84
2022/11/18 03:39:04;;;;;;;23.97;16.33;;;8.30;99.90;;;;;;5032699;28;20041;-85
2022/11/18 03:41:35;;;;;;;19.83;14.93;;;8.30;99.90;;;;;;5034648;28;20054;-84
2022/11/18 03:44:12;;;;;;;20.17;15.73;;;8.30;99.90;;;;;;5034222;28;20052;-84
2022/11/18 03:46:42;;;;;;;20.05;15.45;;;8.30;99.90;;;;;;5033082;28;20041;-85
2022/11/18 03:49:14;;;;;;;20.88;15.80;;;8.30;99.90;;;;;;5032787;28;20037;-84
2022/11/18 03:51:52;;;;;;;18.73;14.32;;;8.30;99.90;;;;;;5033324;28;20045;-84
2022/11/18 03:54:23;;;;;;;18.85;15.02;;;8.30;99.90;;;;;;5034451;28;20033;-84
2022/11/18 03:57:10;;;;;;;22.50;15.77;;;8.30;99.90;;;;;;5031793;28;20400;-85
2022/11/18 04:00:19;;;;;;;20.77;15.30;;;8.30;99.90;;;;;;5032692;28;20052;-85
2022/11/18 04:02:47;;;;;;;19.85;15.02;;;8.30;99.90;;;;;;5024073;28;20121;-84
2022/11/18 04:05:16;;;;;;;21.63;15.25;;;8.30;99.90;;;;;;5033779;28;20036;-84
2022/11/18 04:07:50;;;;;;;20.88;14.98;;;8.30;99.90;;;;;;5033551;28;20041;-85
2022/11/18 04:10:20;;;;;;;19.50;15.38;;;8.30;99.90;;;;;;5033416;28;20104;-85
2022/11/18 04:13:05;;;;;;;20.05;14.52;;;8.30;99.90;;;;;;5033633;28;20386;-84
2022/11/18 04:15:31;;;;;;;21.35;14.93;;;8.30;99.90;;;;;;5032089;28;20128;-84
2022/11/18 04:17:57;;;;;;;20.98;14.60;;;8.20;99.90;;;;;;5031973;28;20053;-84
2022/11/18 04:20:23;;;;;;;23.52;15.43;;;8.30;99.90;;;;;;5033533;28;20429;-84
2022/11/18 04:22:49;;;;;;;21.50;15.55;;;8.30;99.90;;;;;;5032106;28;20575;-85
2022/11/18 04:25:15;;;;;;;22.30;15.13;;;8.30;99.90;;;;;;5032316;28;20061;-85
2022/11/18 04:27:40;;;;;;;21.13;15.10;;;8.30;99.90;;;;;;5033091;28;20096;-85
2022/11/18 04:30:07;;;;;;;21.45;15.13;;;8.20;99.90;;;;;;5032592;28;20075;-84
2022/11/18 04:32:33;;;;;;;18.27;14.30;;;8.30;99.90;;;;;;5033376;28;20080;-85
2022/11/18 04:34:58;;;;;;;18.75;14.52;;;8.30;99.90;;;;;;5031715;28;20046;-85
2022/11/18 04:37:25;;;;;;;19.30;14.93;;;8.20;99.90;;;;;;5032350;28;20041;-85
2022/11/18 04:39:50;;;;;;;20.85;15.25;;;8.20;99.90;;;;;;5032028;28;20041;-85
2022/11/18 04:42:16;;;;;;;18.33;13.77;;;8.20;99.90;;;;;;5033336;28;20099;-85
2022/11/18 04:44:42;;;;;;;19.63;14.85;;;8.20;99.90;;;;;;5031281;28;20042;-85
2022/11/18 04:47:07;;;;;;;19.38;14.18;;;8.20;99.90;;;;;;5033187;28;20100;-85
2022/11/18 04:49:34;;;;;;;19.52;15.75;;;8.20;99.90;;;;;;5031730;28;20045;-85
2022/11/18 04:52:00;;;;;;;19.33;14.52;;;8.20;99.90;;;;;;5031629;28;20489;-85
2022/11/18 04:54:26;;;;;;;18.42;15.00;;;8.20;99.90;;;;;;5031204;28;20041;-84
2022/11/18 04:56:53;;;;;;;18.98;14.52;;;8.20;99.90;;;;;;5033300;28;20111;-84
2022/11/18 04:59:24;;;;;;;19.23;14.32;;;8.20;99.90;;;;;;5030918;28;20045;-85
2022/11/18 05:01:49;;;;;;;19.30;14.57;;;8.20;99.90;;;;;;5032569;28;20475;-84
2022/11/18 05:04:20;;;;;;;20.52;14.70;;;8.20;99.90;;;;;;5033314;28;20049;-85
2022/11/18 05:06:46;;;;;;;18.55;14.40;;;8.20;99.90;;;;;;5030604;28;20396;-85
2022/11/18 05:09:12;;;;;;;20.70;14.95;;;8.20;99.90;;;;;;5033495;28;20059;-85
2022/11/18 05:14:26;;;;;;;20.38;14.10;;;8.20;99.90;;;;;;5032183;28;20041;-85
2022/11/18 05:16:52;;;;;;;20.25;15.05;;;8.20;99.90;;;;;;5032373;28;20045;-84
2022/11/18 05:19:17;;;;;;;21.73;14.80;;;8.30;99.90;;;;;;5033194;28;20037;-85
2022/11/18 05:21:43;;;;;;;18.95;14.88;;;8.20;99.90;;;;;;5031478;28;20041;-84
2022/11/18 05:24:09;;;;;;;19.35;15.07;;;8.20;99.90;;;;;;5032891;28;20412;-85
2022/11/18 05:26:34;;;;;;;22.17;14.55;;;8.20;99.90;;;;;;5032509;28;20084;-84
2022/11/18 05:29:00;;;;;;;18.63;13.95;;;8.30;99.90;;;;;;5030962;28;20038;-85
2022/11/18 05:31:25;;;;;;;20.42;14.52;;;8.20;99.90;;;;;;5031085;28;20454;-85
2022/11/18 05:33:51;;;;;;;20.63;14.32;;;8.20;99.90;;;;;;5032943;28;20045;-85
2022/11/18 05:36:19;;;;;;;20.83;14.95;;;8.20;99.90;;;;;;5031908;28;20429;-85
2022/11/18 05:38:45;;;;;;;20.60;14.43;;;8.20;99.90;;;;;;5012153;28;20497;-85
2022/11/18 05:43:09;;;;;;;20.13;14.15;;;8.20;99.90;;;;;;5018851;28;20037;-85
2022/11/18 05:43:57;;;;;;;18.50;14.07;;;8.20;99.90;;;;;;5030727;28;20131;-85
2022/11/18 05:46:22;;;;;;;22.83;15.07;;;8.20;99.90;;;;;;5031643;28;20049;-85
2022/11/18 05:48:51;;;;;;;19.30;13.90;;;8.20;99.90;;;;;;5031608;28;20980;-84
2022/11/18 05:51:17;;;;;;;21.00;14.95;;;8.20;99.90;;;;;;5023194;28;20073;-85
2022/11/18 05:53:43;;;;;;;19.50;14.00;;;8.20;99.90;;;;;;5027337;28;20037;-84
2022/11/18 05:56:17;;;;;;;19.25;14.25;;;8.20;99.90;;;;;;5021899;28;20064;-84
2022/11/18 05:58:43;;;;;;;19.65;14.10;;;8.20;99.90;;;;;;5034776;28;20048;-85
2022/11/18 06:01:09;;;;;;;18.35;13.85;;;8.20;99.90;;;;;;5029278;28;20041;-84
2022/11/18 06:03:37;;;;;;;21.23;15.00;;;8.20;99.90;;;;;;5033542;28;20087;-84
2022/11/18 06:06:05;;;;;;;20.38;14.32;;;8.20;99.90;;;;;;5034211;28;20051;-84
2022/11/18 06:08:41;;;;;;;18.95;14.88;;;8.20;99.90;;;;;;5034831;28;20136;-84
2022/11/18 06:11:11;;;;;;;19.83;14.80;;;8.20;99.90;;;;;;5026566;28;20034;-84
2022/11/18 06:13:43;;;;;;;20.17;14.77;;;8.20;99.90;;;;;;5023858;28;20076;-84
2022/11/18 06:16:11;;;;;;;19.80;14.77;;;8.20;99.90;;;;;;5035711;28;20040;-83
2022/11/18 06:18:37;;;;;;;19.63;15.02;;;8.20;99.90;;;;;;5033702;28;20049;-84
2022/11/18 06:21:04;;;;;;;20.80;14.77;;;8.20;99.90;;;;;;5034350;28;20034;-83
2022/11/18 06:23:34;;;;;;;20.67;14.30;;;8.20;99.90;;;;;;5035854;28;20136;-84
2022/11/18 06:26:00;;;;;;;21.40;14.45;;;8.20;99.90;;;;;;5035320;28;20396;-86
2022/11/18 06:28:26;;;;;;;22.10;14.32;;;8.20;99.90;;;;;;5034127;28;20072;-85
2022/11/18 06:30:52;;;;;;;21.83;14.98;;;8.20;99.90;;;;;;5033017;28;20404;-84
2022/11/18 06:33:18;;;;;;;19.25;14.20;;;8.10;99.90;;;;;;5034739;28;20045;-84
2022/11/18 06:35:44;;;;;;;19.48;14.00;;;8.20;99.90;;;;;;5034917;28;20129;-84
2022/11/18 06:38:09;;;;;;;18.50;13.65;;;8.10;99.90;;;;;;5033962;28;20045;-85
2022/11/18 06:40:36;;;;;;;21.17;14.32;;;8.10;99.90;;;;;;5034478;28;20087;-85
2022/11/18 06:48:45;;;;;;;22.48;15.15;;;8.10;99.90;;;;;;5027891;28;20168;-83
2022/11/18 06:51:10;;;;;;;20.83;14.32;;;8.10;99.90;;;;;;5016318;28;20128;-83
2022/11/18 06:53:36;;;;;;;19.92;14.55;;;8.10;99.90;;;;;;5032893;28;20510;-83
2022/11/18 06:56:03;;;;;;;20.58;14.90;;;8.10;99.90;;;;;;5032359;28;20096;-83
2022/11/18 06:58:29;;;;;;;20.48;14.98;;;8.10;99.90;;;;;;5034811;28;20423;-83
2022/11/18 07:00:54;;;;;;;18.75;14.45;;;8.10;99.90;;;;;;5024402;28;20103;-84
2022/11/18 07:03:20;;;;;;;18.67;13.60;;;8.10;99.90;;;;;;5025289;28;20052;-84
2022/11/18 07:05:46;;;;;;;18.92;14.13;;;8.10;99.90;;;;;;5031320;28;20087;-84
2022/11/18 07:08:11;;;;;;;19.83;14.13;;;8.10;99.90;;;;;;5016504;28;20046;-83
2022/11/18 07:10:37;;;;;;;19.92;13.57;;;8.10;99.90;;;;;;5028990;28;20104;-84
2022/11/18 07:13:02;;;;;;;20.13;15.07;;;8.10;99.90;;;;;;5023536;28;20041;-84
2022/11/18 07:15:28;;;;;;;21.92;14.40;;;8.00;99.90;;;;;;5028436;28;20528;-84
2022/11/18 07:17:53;;;;;;;20.98;15.23;;;8.00;99.90;;;;;;5028260;28;20045;-83
2022/11/18 07:20:19;;;;;;;24.35;14.73;;;8.00;99.90;;;;;;5015124;28;20539;-82
2022/11/18 07:22:45;;;;;;;20.73;14.18;;;8.00;99.90;;;;;;5018302;28;20062;-83
2022/11/18 07:25:10;;;;;;;22.40;14.90;;;8.00;99.90;;;;;;5041251;28;20042;-83
2022/11/18 07:27:36;;;;;;;22.67;15.00;;;8.00;99.90;;;;;;5018567;28;20068;-83
2022/11/18 07:30:02;;;;;;;21.25;15.15;;;8.00;99.90;;;;;;5037937;28;20489;-83
2022/11/18 07:32:27;;;;;;;20.45;14.90;;;8.00;99.90;;;;;;5028353;28;20033;-83
2022/11/18 07:34:53;;;;;;;21.30;15.00;;;8.00;99.90;;;;;;5025947;28;20042;-83
2022/11/18 07:37:18;;;;;;;22.17;14.20;;;8.00;99.90;;;;;;5023994;28;20398;-83
2022/11/18 07:39:44;;;;;;;21.95;13.98;;;8.10;99.90;;;;;;5033338;28;20041;-83
2022/11/18 07:42:10;;;;;;;21.42;14.05;;;8.00;99.90;;;;;;5029159;28;20057;-83
2022/11/18 07:44:35;;;;;;;21.55;14.73;;;8.00;99.90;;;;;;5032669;28;20049;-83
2022/11/18 07:47:01;;;;;;;21.23;14.25;;;8.10;99.90;;;;;;5031410;28;20049;-84
2022/11/18 07:49:26;;;;;;;19.52;13.93;;;8.10;99.90;;;;;;5024354;28;20465;-83
2022/11/18 07:51:53;;;;;;;19.95;13.85;;;8.00;99.90;;;;;;5025195;28;20041;-84
2022/11/18 07:54:18;;;;;;;21.33;13.80;;;8.10;99.90;;;;;;5022336;28;20041;-85
2022/11/18 07:56:44;;;;;;;20.38;14.20;;;8.10;99.90;;;;;;5028638;28;20087;-87
2022/11/18 07:59:10;;;;;;;21.25;13.63;;;8.00;99.90;;;;;;5026363;28;20081;-85
2022/11/18 08:01:35;;;;;;;21.05;13.68;;;8.00;99.90;;;;;;5019307;28;20088;-84
2022/11/18 08:04:09;;;;;;;22.90;14.35;;;8.00;99.90;;;;;;5027777;28;20397;-84
2022/11/18 08:06:35;;;;;;;19.50;13.65;;;8.00;99.90;;;;;;5022237;28;20080;-84
2022/11/18 08:09:02;;;;;;;20.90;13.02;;;8.00;99.90;;;;;;5028038;28;20045;-84
2022/11/18 08:11:28;;;;;;;20.55;14.10;;;8.00;99.90;;;;;;5024822;28;20044;-84
2022/11/18 08:13:53;;;;;;;20.88;14.05;;;8.00;99.90;;;;;;5028969;28;20045;-87
2022/11/18 08:16:21;;;;;;;22.42;13.73;;;8.00;99.90;;;;;;5027937;28;20042;-87
2022/11/18 08:18:47;;;;;;;22.60;14.25;;;8.00;99.90;;;;;;5025556;28;20042;-84
2022/11/18 08:21:13;;;;;;;27.08;13.52;;;8.00;99.90;;;;;;5018234;28;20128;-87
2022/11/18 08:23:39;;;;;;;19.40;12.57;;;7.90;99.90;;;;;;5030685;28;20041;-87
2022/11/18 08:26:14;;;;;;;19.15;11.85;;;7.90;99.90;;;;;;5008329;28;20042;-87
2022/11/18 08:28:41;;;;;;;17.67;11.70;;;7.90;99.90;;;;;;5011202;28;20041;-88
2022/11/18 08:31:25;;;;;;;17.95;12.52;;;7.90;99.90;;;;;;5019928;28;20489;-88
2022/11/18 08:33:58;;;;;;;20.33;12.88;;;7.90;99.90;;;;;;5023957;28;20057;-92
2022/11/18 08:36:26;;;;;;;19.63;12.02;;;7.90;99.90;;;;;;5011435;28;20608;-92
2022/11/18 08:38:58;;;;;;;18.17;11.95;;;7.90;99.90;;;;;;5013045;28;20037;-92
2022/11/18 08:41:28;;;;;;;17.15;12.18;;;7.90;99.90;;;;;;5015221;28;20042;-91
2022/11/18 08:43:54;;;;;;;19.73;11.65;;;7.90;99.90;;;;;;5008933;28;20060;-90
2022/11/18 08:46:19;;;;;;;18.20;11.50;;;7.90;99.90;;;;;;5015242;28;20042;-92
2022/11/18 08:48:45;;;;;;;17.33;12.10;;;7.90;99.90;;;;;;5031284;28;20037;-92
2022/11/18 08:51:12;;;;;;;16.33;11.50;;;7.90;99.90;;;;;;5014994;28;20045;-90
2022/11/18 08:53:38;;;;;;;18.20;11.13;;;7.90;99.90;;;;;;5007302;28;20124;-93
2022/11/18 08:56:04;;;;;;;18.77;11.38;;;7.90;99.90;;;;;;5011677;28;20125;-92
2022/11/18 08:58:30;;;;;;;17.27;11.23;;;7.90;99.90;;;;;;5002522;28;20041;-93
2022/11/18 09:00:55;;;;;;;15.02;10.18;;;7.90;99.90;;;;;;4998733;28;20045;-91
2022/11/18 09:03:21;;;;;;;15.65;10.63;;;7.90;99.90;;;;;;4998230;28;20042;-90
2022/11/18 09:05:47;;;;;;;14.57;10.82;;;7.90;99.90;;;;;;5023910;28;20083;-92
2022/11/18 09:08:14;;;;;;;16.65;10.95;;;7.90;99.90;;;;;;5012059;28;20071;-89
2022/11/18 09:10:40;;;;;;;18.95;10.75;;;7.90;99.90;;;;;;5025334;28;20030;-91
2022/11/18 09:13:32;;;;;;;16.10;11.05;;;7.90;99.90;;;;;;4996026;28;20042;-93
2022/11/18 09:15:59;;;;;;;14.63;10.15;;;7.90;99.90;;;;;;4965501;28;20062;-92
2022/11/18 09:18:37;;;;;;;14.35;10.48;;;7.90;99.90;;;;;;4943670;28;20045;-92
2022/11/18 09:21:06;;;;;;;14.27;9.88;;;7.90;99.90;;;;;;4944983;28;20199;-94
2022/11/18 09:23:36;;;;;;;14.10;10.15;;;7.90;99.90;;;;;;4959115;28;20445;-94
2022/11/18 09:26:32;;;;;;;16.67;11.02;;;7.90;99.90;;;;;;4990082;28;20152;-93
2022/11/18 09:29:14;;;;;;;;;;;;;;;;;;;;;
2022/11/18 09:32:04;;;;;;;15.23;10.57;;;7.90;99.90;;;;;;4946437;28;20557;-93
2022/11/18 09:34:40;;;;;;;14.13;10.38;;;7.90;99.90;;;;;;4994047;28;20053;-91
2022/11/18 09:37:25;;;;;;;;;;;;;;;;;;;;;
2022/11/18 09:40:33;;;;;;;14.70;10.45;;;7.90;99.90;;;;;;4926895;28;20055;-93
2022/11/18 10:57:30;;;;;;;14.57;11.15;;;7.90;99.90;;;;;;5463386;23;20052;-85
2022/11/18 10:59:56;;;;;;;14.50;11.02;;;7.90;99.90;;;;;;4915353;29;20510;-83
2022/11/18 11:02:30;;;;;;;14.27;11.00;;;7.90;99.90;;;;;;4917291;29;20086;-86
2022/11/18 11:04:58;;;;;;;13.70;10.70;;;7.90;99.90;;;;;;4919549;29;20051;-84
2022/11/18 11:07:34;;;;;;;16.13;11.57;;;7.90;99.90;;;;;;4918511;29;20051;-85
2022/11/18 11:10:09;;;;;;;14.63;10.50;;;7.90;99.90;;;;;;4917120;29;20052;-85
2022/11/18 11:12:45;;;;;;;13.60;10.68;;;7.90;99.90;;;;;;4902407;29;20119;-84
2022/11/18 11:15:38;;;;;;;16.85;10.88;;;7.90;99.90;;;;;;4907519;29;20053;-83
2022/11/18 11:18:42;;;;;;;15.60;10.98;;;7.90;99.90;;;;;;4914181;29;20139;-83
2022/11/18 11:21:18;;;;;;;15.52;10.38;;;7.90;99.90;;;;;;4916455;29;20445;-83
2022/11/18 11:23:44;;;;;;;15.07;10.55;;;7.90;99.90;;;;;;4903632;29;20053;-84
2022/11/18 11:26:16;;;;;;;14.63;11.20;;;7.90;99.90;;;;;;4913194;29;20044;-84
2022/11/18 11:28:50;;;;;;;14.25;11.15;;;7.90;99.90;;;;;;4904867;29;20079;-84
2022/11/18 11:31:27;;;;;;;15.85;11.30;;;7.90;99.90;;;;;;4908399;29;20052;-83
2022/11/18 11:34:28;;;;;;;14.18;10.35;;;7.90;99.90;;;;;;4911811;29;20078;-83
2022/11/18 11:37:37;;;;;;;14.27;10.38;;;7.90;99.90;;;;;;4905830;29;20071;-83
2022/11/18 11:40:28;;;;;;;15.10;10.48;;;7.90;99.90;;;;;;4901414;29;20045;-82
2022/11/18 11:43:25;;;;;;;14.93;10.90;;;7.90;99.90;;;;;;4910144;29;20064;-83
2022/11/18 11:46:28;;;;;;;13.85;9.90;;;7.90;99.90;;;;;;4912339;29;20080;-81
2022/11/18 11:49:16;;;;;;;14.40;10.40;;;7.90;99.90;;;;;;4904899;29;20540;-83
2022/11/18 11:51:52;;;;;;;14.63;10.90;;;7.90;99.90;;;;;;4910511;29;20377;-83
2022/11/18 11:54:40;;;;;;;14.88;10.77;;;7.90;99.90;;;;;;4915216;29;20143;-82
2022/11/18 11:57:26;;;;;;;15.77;10.55;;;7.90;99.90;;;;;;4908760;29;20060;-83
2022/11/18 12:00:04;;;;;;;13.48;9.60;;;7.90;99.90;;;;;;4928090;29;20094;-83
2022/11/18 12:02:48;;;;;;;13.48;9.88;;;7.90;99.90;;;;;;4902221;29;20048;-83
2022/11/18 12:05:38;;;;;;;14.80;10.45;;;7.90;99.90;;;;;;4917709;29;20500;-83
2022/11/18 12:08:21;;;;;;;13.30;10.18;;;7.90;99.90;;;;;;4915048;29;20063;-84
2022/11/18 12:10:57;;;;;;;15.27;9.77;;;7.90;99.90;;;;;;4912467;29;20765;-84
2022/11/18 12:13:51;;;;;;;13.18;9.68;;;7.90;99.90;;;;;;4912277;29;20051;-85
2022/11/18 12:16:35;;;;;;;;;;;7.90;99.90;;;;;;4912670;29;20059;-84
2022/11/18 12:19:14;;;;;;;;;;;7.80;99.90;;;;;;4907596;29;19930;-84
2022/11/18 12:21:46;;;;;;;14.13;9.63;;;7.80;99.90;;;;;;4905149;29;19924;-84
2022/11/18 12:24:33;;;;;;;14.05;10.05;;;7.80;99.90;;;;;;4914513;29;20560;-84
2022/11/18 12:27:13;;;;;;;14.07;10.10;;;7.80;99.90;;;;;;4906499;29;20460;-84
2022/11/18 12:29:48;;;;;;;13.50;9.60;;;7.80;99.90;;;;;;4916001;29;20083;-85
2022/11/18 12:32:34;;;;;;;15.63;10.73;;;7.80;99.90;;;;;;4908332;29;20058;-84
2022/11/18 12:35:11;;;;;;;17.42;10.52;;;7.80;99.90;;;;;;4917028;29;20064;-84
2022/11/18 12:37:52;;;;;;;14.27;10.23;;;7.80;99.90;;;;;;4916408;29;20047;-85
2022/11/18 12:40:32;;;;;;;15.35;10.55;;;7.80;99.90;;;;;;4916483;29;20373;-84
2022/11/18 12:45:44;;;;;;;13.52;9.93;;;7.80;99.90;;;;;;4909069;29;20153;-85
2022/11/18 12:48:22;;;;;;;15.38;10.77;;;7.80;99.90;;;;;;4900830;29;20048;-85
2022/11/18 12:50:51;;;;;;;14.90;10.13;;;7.80;99.90;;;;;;4913466;29;20048;-85
2022/11/18 12:53:34;;;;;;;16.02;10.07;;;7.80;99.90;;;;;;4906618;29;20040;-85
2022/11/18 12:55:59;;;;;;;14.45;9.57;;;7.80;99.90;;;;;;4912933;29;20055;-85
2022/11/18 12:58:26;;;;;;;13.95;9.35;;;7.80;99.90;;;;;;4910838;29;20048;-84
2022/11/18 13:01:07;;;;;;;15.32;9.45;;;7.80;99.90;;;;;;4904519;29;20051;-84
2022/11/18 13:03:33;;;;;;;14.55;9.00;;;7.80;99.90;;;;;;4902928;29;20052;-85
2022/11/18 13:06:05;;;;;;;12.30;8.85;;;7.80;99.90;;;;;;4911200;29;20044;-84
2022/11/18 13:08:31;;;;;;;13.00;8.95;;;7.80;99.90;;;;;;4913189;29;20044;-85
2022/11/18 13:17:50;;;;;;;12.35;8.77;;;7.90;99.90;;;;;;4913482;29;20044;-85
2022/11/18 13:19:24;;;;;;;13.07;8.63;;;7.80;99.90;;;;;;4903512;29;20052;-86
2022/11/18 13:24:48;;;;;;;14.18;8.25;;;7.80;99.90;;;;;;4895978;29;20072;-85
2022/11/18 13:27:48;;;;;;;12.90;8.10;;;7.80;99.90;;;;;;4902026;29;20047;-85
2022/11/18 13:30:14;;;;;;;12.32;8.07;;;7.80;99.90;;;;;;4914960;29;20103;-85
2022/11/18 13:32:44;;;;;;;13.63;8.60;;;7.80;99.90;;;;;;4909146;29;20036;-84
2022/11/18 13:35:22;;;;;;;12.07;8.00;;;7.70;99.90;;;;;;4906822;29;20044;-84
2022/11/18 13:37:56;;;;;;;13.77;8.68;;;7.70;99.90;;;;;;4900332;29;20118;-84
2022/11/18 13:40:37;;;;;;;12.88;8.63;;;7.70;99.90;;;;;;4911279;29;20041;-84
2022/11/18 13:43:02;;;;;;;13.00;8.35;;;7.70;99.90;;;;;;4900382;29;20071;-83
2022/11/18 13:45:30;;;;;;;13.93;8.90;;;7.70;99.90;;;;;;4917095;29;20453;-85
2022/11/18 13:48:11;;;;;;;13.82;9.50;;;7.70;99.90;;;;;;4909930;29;20400;-83
2022/11/18 13:50:50;;;;;;;13.52;8.48;;;7.70;99.90;;;;;;4914340;29;20052;-83
2022/11/18 13:53:21;;;;;;;14.50;8.98;;;7.70;99.90;;;;;;4905646;29;20041;-83
2022/11/18 13:55:50;;;;;;;14.18;9.18;;;7.70;99.90;;;;;;4909065;29;20556;-83
2022/11/18 13:58:18;;;;;;;14.45;9.50;;;7.70;99.90;;;;;;4898459;29;20408;-83
2022/11/18 14:00:59;;;;;;;15.45;10.73;;;7.70;99.90;;;;;;4912820;29;20074;-84
2022/11/18 14:03:30;;;;;;;17.00;10.07;;;7.70;99.90;;;;;;4903918;29;20417;-84
2022/11/18 14:05:58;;;;;;;13.68;10.05;;;7.70;99.90;;;;;;4911895;29;20492;-85
2022/11/18 14:08:36;;;;;;;14.57;10.05;;;7.70;99.90;;;;;;4902751;29;20043;-84
2022/11/18 14:11:02;;;;;;;15.15;10.68;;;7.70;99.90;;;;;;4906325;29;20080;-84
2022/11/18 14:13:33;;;;;;;15.15;10.18;;;7.60;99.90;;;;;;4908709;29;20380;-85
2022/11/18 14:16:19;;;;;;;18.02;10.70;;;7.60;99.90;;;;;;4900277;29;20576;-84
2022/11/18 14:18:47;;;;;;;15.73;10.80;;;7.60;99.90;;;;;;4911681;29;20045;-84
2022/11/18 14:21:24;;;;;;;16.77;11.35;;;7.60;99.90;;;;;;4908895;29;20041;-83
2022/11/18 14:23:50;;;;;;;15.20;10.80;;;7.60;99.90;;;;;;4914704;29;20127;-84
2022/11/18 14:26:32;;;;;;;15.30;10.48;;;7.60;99.90;;;;;;4917001;29;20052;-84
2022/11/18 14:29:00;;;;;;;15.77;11.15;;;7.60;99.90;;;;;;4911289;29;20092;-84
2022/11/18 14:31:28;;;;;;;17.73;11.02;;;7.60;99.90;;;;;;4918053;29;20040;-84
2022/11/18 14:34:22;;;;;;;15.60;11.13;;;7.60;99.90;;;;;;4917468;29;20075;-84
2022/11/18 14:36:49;;;;;;;15.40;11.23;;;7.60;99.90;;;;;;4915775;29;20130;-84
2022/11/18 14:39:23;;;;;;;16.27;11.10;;;7.60;99.90;;;;;;4911112;29;20138;-84
2022/11/18 14:41:49;;;;;;;14.52;10.35;;;7.60;99.90;;;;;;4904810;29;20438;-84
2022/11/18 14:44:16;;;;;;;14.85;10.25;;;7.60;99.90;;;;;;4916759;29;20070;-83